EZY24 EGPH-LPMA
Flight info
| Callsign | EZY24 |
|---|---|
| Flight time | 3h 52m |
| Altitude | 34000 |
| Route | GOSAM DCT TRN DCT ERNAN DCT SHA DCT LINRA/M078F340 DCT OMOKO T16 EKROL/M078F370 T16 NAVIX/N0452F370 DCT KICAS |
| Aircraft | A320/M-SDE3FGHIRWY/LB1 |
Departure
| Time | 2026-05-07 19:45 |
|---|---|
| Airport | Edinburgh Airport (EGPH) |
Arrival
| Time | 2026-05-07 23:38 |
|---|---|
| Airport | Cristiano Ronaldo International Airport (LPMA) |
| Time | Latitude | Longitude | Altitude | Speed | Heading |
|---|---|---|---|---|---|
| 2026-05-07 19:08 | 55.94905 | -3.36494 | 116 ft | 0 kts | 148° |
| 2026-05-07 19:36 | 55.94905 | -3.36495 | 116 ft | 1 kts | 150° |
| 2026-05-07 19:37 | 55.94926 | -3.36519 | 113 ft | 4 kts | 140° |
| 2026-05-07 19:37 | 55.94944 | -3.36553 | 111 ft | 4 kts | 115° |
| 2026-05-07 19:37 | 55.94947 | -3.36593 | 113 ft | 3 kts | 61° |
| 2026-05-07 19:37 | 55.94944 | -3.36604 | 111 ft | 0 kts | 59° |
| 2026-05-07 19:41 | 55.94953 | -3.36576 | 112 ft | 5 kts | 59° |
| 2026-05-07 19:41 | 55.94976 | -3.36508 | 112 ft | 8 kts | 59° |
| 2026-05-07 19:41 | 55.95011 | -3.36410 | 115 ft | 11 kts | 52° |
| 2026-05-07 19:41 | 55.95087 | -3.36388 | 115 ft | 13 kts | 21° |
| 2026-05-07 19:42 | 55.95144 | -3.36252 | 114 ft | 15 kts | 59° |
| 2026-05-07 19:42 | 55.95199 | -3.36083 | 114 ft | 17 kts | 59° |
| 2026-05-07 19:42 | 55.95265 | -3.35888 | 112 ft | 20 kts | 59° |
| 2026-05-07 19:42 | 55.95341 | -3.35661 | 114 ft | 23 kts | 59° |
| 2026-05-07 19:43 | 55.95368 | -3.35470 | 116 ft | 16 kts | 88° |
| 2026-05-07 19:43 | 55.95444 | -3.35380 | 112 ft | 17 kts | 336° |
| 2026-05-07 19:43 | 55.95479 | -3.35420 | 115 ft | 2 kts | 328° |
| 2026-05-07 19:43 | 55.95490 | -3.35432 | 115 ft | 3 kts | 328° |
| 2026-05-07 19:44 | 55.95521 | -3.35467 | 115 ft | 8 kts | 328° |
| 2026-05-07 19:44 | 55.95568 | -3.35555 | 113 ft | 12 kts | 271° |
| 2026-05-07 19:44 | 55.95550 | -3.35624 | 112 ft | 0 kts | 238° |
| 2026-05-07 19:44 | 55.95510 | -3.35740 | 113 ft | 39 kts | 239° |
| 2026-05-07 19:45 | 55.95242 | -3.36530 | 112 ft | 106 kts | 239° |
| 2026-05-07 19:45 | 55.94766 | -3.37923 | 118 ft | 155 kts | 237° |
| 2026-05-07 19:45 | 55.94157 | -3.39627 | 537 ft | 166 kts | 235° |
| 2026-05-07 19:45 | 55.93555 | -3.41382 | 1285 ft | 165 kts | 235° |
| 2026-05-07 19:46 | 55.92944 | -3.43161 | 1728 ft | 175 kts | 234° |
| 2026-05-07 19:46 | 55.92279 | -3.45087 | 2025 ft | 188 kts | 234° |
| 2026-05-07 19:46 | 55.91575 | -3.47129 | 2416 ft | 202 kts | 235° |
| 2026-05-07 19:46 | 55.90709 | -3.49218 | 2821 ft | 214 kts | 227° |
| 2026-05-07 19:47 | 55.89683 | -3.51189 | 3434 ft | 219 kts | 225° |
| 2026-05-07 19:47 | 55.88536 | -3.52940 | 4111 ft | 221 kts | 216° |
| 2026-05-07 19:47 | 55.87233 | -3.54561 | 4559 ft | 238 kts | 214° |
| 2026-05-07 19:47 | 55.85830 | -3.56252 | 5168 ft | 247 kts | 214° |
| 2026-05-07 19:48 | 55.84388 | -3.57971 | 5801 ft | 253 kts | 214° |
| 2026-05-07 19:48 | 55.82924 | -3.59707 | 5973 ft | 253 kts | 214° |
| 2026-05-07 19:48 | 55.81458 | -3.61440 | 6012 ft | 252 kts | 214° |
| 2026-05-07 19:48 | 55.79998 | -3.63166 | 6010 ft | 252 kts | 214° |
| 2026-05-07 19:49 | 55.78527 | -3.64911 | 6393 ft | 255 kts | 214° |
| 2026-05-07 19:49 | 55.77049 | -3.66663 | 7183 ft | 256 kts | 214° |
| 2026-05-07 19:49 | 55.75562 | -3.68419 | 7952 ft | 258 kts | 214° |
| 2026-05-07 19:49 | 55.74060 | -3.70185 | 8696 ft | 260 kts | 214° |
| 2026-05-07 19:50 | 55.72541 | -3.71960 | 9435 ft | 262 kts | 214° |
| 2026-05-07 19:50 | 55.71001 | -3.73750 | 10091 ft | 268 kts | 214° |
| 2026-05-07 19:50 | 55.69377 | -3.75639 | 10252 ft | 291 kts | 214° |
| 2026-05-07 19:50 | 55.67622 | -3.77689 | 10389 ft | 313 kts | 214° |
| 2026-05-07 19:51 | 55.65768 | -3.79863 | 10774 ft | 324 kts | 214° |
| 2026-05-07 19:51 | 55.63874 | -3.82090 | 11386 ft | 328 kts | 214° |
| 2026-05-07 19:51 | 55.61991 | -3.84309 | 12010 ft | 331 kts | 214° |
| 2026-05-07 19:51 | 55.60067 | -3.86580 | 12673 ft | 334 kts | 214° |
| 2026-05-07 19:52 | 55.58129 | -3.88872 | 13315 ft | 337 kts | 214° |
| 2026-05-07 19:52 | 55.56175 | -3.91188 | 13928 ft | 340 kts | 214° |
| 2026-05-07 19:52 | 55.54210 | -3.93531 | 14488 ft | 342 kts | 214° |
| 2026-05-07 19:52 | 55.52230 | -3.95890 | 15072 ft | 344 kts | 214° |
| 2026-05-07 19:53 | 55.50240 | -3.98259 | 15631 ft | 346 kts | 214° |
| 2026-05-07 19:53 | 55.48236 | -4.00639 | 16192 ft | 348 kts | 214° |
| 2026-05-07 19:53 | 55.46221 | -4.03032 | 16747 ft | 350 kts | 214° |
| 2026-05-07 19:53 | 55.44194 | -4.05445 | 17273 ft | 353 kts | 216° |
| 2026-05-07 19:54 | 55.42403 | -4.08415 | 17774 ft | 357 kts | 232° |
| 2026-05-07 19:54 | 55.41096 | -4.12155 | 18301 ft | 361 kts | 238° |
| 2026-05-07 19:54 | 55.39844 | -4.16002 | 18781 ft | 363 kts | 239° |
| 2026-05-07 19:54 | 55.38593 | -4.19873 | 19239 ft | 366 kts | 239° |
| 2026-05-07 19:55 | 55.37331 | -4.23789 | 19719 ft | 368 kts | 239° |
| 2026-05-07 19:55 | 55.36080 | -4.27661 | 20166 ft | 370 kts | 239° |
| 2026-05-07 19:55 | 55.34797 | -4.31604 | 20610 ft | 373 kts | 239° |
| 2026-05-07 19:55 | 55.33497 | -4.35579 | 21066 ft | 375 kts | 239° |
| 2026-05-07 19:56 | 55.32190 | -4.39566 | 21506 ft | 378 kts | 239° |
| 2026-05-07 19:56 | 55.30877 | -4.43574 | 21952 ft | 380 kts | 239° |
| 2026-05-07 19:56 | 55.29556 | -4.47604 | 22392 ft | 381 kts | 238° |
| 2026-05-07 19:56 | 55.28231 | -4.51644 | 22820 ft | 383 kts | 239° |
| 2026-05-07 19:57 | 55.26897 | -4.55710 | 23221 ft | 386 kts | 238° |
| 2026-05-07 19:57 | 55.25553 | -4.59794 | 23595 ft | 388 kts | 238° |
| 2026-05-07 19:57 | 55.24196 | -4.63903 | 23917 ft | 390 kts | 238° |
| 2026-05-07 19:57 | 55.22831 | -4.68024 | 24233 ft | 392 kts | 238° |
| 2026-05-07 19:58 | 55.21460 | -4.72164 | 24557 ft | 394 kts | 238° |
| 2026-05-07 19:58 | 55.20084 | -4.76315 | 24862 ft | 395 kts | 238° |
| 2026-05-07 19:58 | 55.18696 | -4.80497 | 25168 ft | 397 kts | 238° |
| 2026-05-07 19:58 | 55.17320 | -4.84630 | 25462 ft | 399 kts | 238° |
| 2026-05-07 19:59 | 55.15917 | -4.88832 | 25731 ft | 401 kts | 238° |
| 2026-05-07 19:59 | 55.14506 | -4.93051 | 25987 ft | 403 kts | 238° |
| 2026-05-07 19:59 | 55.13084 | -4.97296 | 26296 ft | 405 kts | 238° |
| 2026-05-07 19:59 | 55.11658 | -5.01553 | 26594 ft | 406 kts | 238° |
| 2026-05-07 20:00 | 55.10229 | -5.05815 | 26863 ft | 408 kts | 238° |
| 2026-05-07 20:00 | 55.08788 | -5.10091 | 27128 ft | 409 kts | 238° |
| 2026-05-07 20:00 | 55.07341 | -5.14385 | 27393 ft | 411 kts | 238° |
| 2026-05-07 20:00 | 55.05891 | -5.18689 | 27651 ft | 412 kts | 238° |
| 2026-05-07 20:01 | 55.04437 | -5.23005 | 27899 ft | 414 kts | 238° |
| 2026-05-07 20:01 | 55.02973 | -5.27338 | 28133 ft | 415 kts | 238° |
| 2026-05-07 20:01 | 55.01496 | -5.31685 | 28362 ft | 417 kts | 238° |
| 2026-05-07 20:01 | 55.00011 | -5.36042 | 28585 ft | 418 kts | 238° |
| 2026-05-07 20:02 | 54.98519 | -5.40412 | 28799 ft | 420 kts | 238° |
| 2026-05-07 20:02 | 54.97045 | -5.44733 | 29006 ft | 421 kts | 238° |
| 2026-05-07 20:02 | 54.95545 | -5.49126 | 29244 ft | 422 kts | 238° |
| 2026-05-07 20:02 | 54.94042 | -5.53512 | 29471 ft | 422 kts | 237° |
| 2026-05-07 20:03 | 54.92537 | -5.57895 | 29737 ft | 422 kts | 237° |
| 2026-05-07 20:03 | 54.91033 | -5.62268 | 30024 ft | 421 kts | 237° |
| 2026-05-07 20:03 | 54.89532 | -5.66633 | 30252 ft | 420 kts | 237° |
| 2026-05-07 20:03 | 54.88032 | -5.70995 | 30470 ft | 420 kts | 237° |
| 2026-05-07 20:04 | 54.86533 | -5.75346 | 30668 ft | 420 kts | 237° |
| 2026-05-07 20:04 | 54.85028 | -5.79701 | 30865 ft | 420 kts | 237° |
| 2026-05-07 20:04 | 54.83519 | -5.84046 | 31069 ft | 420 kts | 237° |
| 2026-05-07 20:04 | 54.82010 | -5.88380 | 31279 ft | 420 kts | 237° |
| 2026-05-07 20:05 | 54.80499 | -5.92702 | 31506 ft | 419 kts | 237° |
| 2026-05-07 20:05 | 54.78987 | -5.97023 | 31728 ft | 419 kts | 237° |
| 2026-05-07 20:05 | 54.77474 | -6.01350 | 31955 ft | 419 kts | 237° |
| 2026-05-07 20:05 | 54.75968 | -6.05658 | 32169 ft | 418 kts | 237° |
| 2026-05-07 20:06 | 54.74460 | -6.09965 | 32374 ft | 418 kts | 237° |
| 2026-05-07 20:06 | 54.72950 | -6.14271 | 32596 ft | 418 kts | 237° |
| 2026-05-07 20:06 | 54.71461 | -6.18507 | 32809 ft | 417 kts | 237° |
| 2026-05-07 20:06 | 54.69950 | -6.22794 | 33026 ft | 417 kts | 237° |
| 2026-05-07 20:07 | 54.68439 | -6.27072 | 33241 ft | 417 kts | 237° |
| 2026-05-07 20:07 | 54.66929 | -6.31344 | 33444 ft | 417 kts | 237° |
| 2026-05-07 20:07 | 54.65420 | -6.35614 | 33645 ft | 416 kts | 237° |
| 2026-05-07 20:07 | 54.63906 | -6.39884 | 33860 ft | 416 kts | 237° |
| 2026-05-07 20:08 | 54.60875 | -6.48392 | 33955 ft | 415 kts | 237° |
| 2026-05-07 20:08 | 54.57855 | -6.56842 | 33950 ft | 413 kts | 237° |
| 2026-05-07 20:09 | 54.54837 | -6.65288 | 33955 ft | 414 kts | 237° |
| 2026-05-07 20:10 | 54.50301 | -6.77905 | 33953 ft | 415 kts | 237° |
| 2026-05-07 20:10 | 54.47253 | -6.86327 | 33952 ft | 414 kts | 237° |
| 2026-05-07 20:11 | 54.44208 | -6.94739 | 33948 ft | 415 kts | 237° |
| 2026-05-07 20:11 | 54.41149 | -7.03139 | 33963 ft | 414 kts | 237° |
| 2026-05-07 20:12 | 54.38088 | -7.11516 | 33964 ft | 414 kts | 237° |
| 2026-05-07 20:12 | 54.35033 | -7.19877 | 33954 ft | 413 kts | 237° |
| 2026-05-07 20:13 | 54.31971 | -7.28216 | 33949 ft | 413 kts | 237° |
| 2026-05-07 20:13 | 54.28781 | -7.36384 | 33943 ft | 412 kts | 229° |
| 2026-05-07 20:14 | 54.24442 | -7.42713 | 33931 ft | 412 kts | 211° |
| 2026-05-07 20:14 | 54.19470 | -7.47629 | 33948 ft | 412 kts | 211° |
| 2026-05-07 20:15 | 54.14548 | -7.52542 | 33952 ft | 412 kts | 211° |
| 2026-05-07 20:15 | 54.09603 | -7.57476 | 33951 ft | 412 kts | 211° |
| 2026-05-07 20:16 | 54.04652 | -7.62373 | 33953 ft | 411 kts | 211° |
| 2026-05-07 20:16 | 53.99695 | -7.67249 | 33938 ft | 411 kts | 211° |
| 2026-05-07 20:17 | 53.94720 | -7.72126 | 33932 ft | 412 kts | 211° |
| 2026-05-07 20:17 | 53.91157 | -7.75618 | 33921 ft | 413 kts | 211° |
| 2026-05-07 20:18 | 53.86177 | -7.80500 | 33945 ft | 414 kts | 211° |
| 2026-05-07 20:18 | 53.81221 | -7.85334 | 33947 ft | 414 kts | 211° |
| 2026-05-07 20:19 | 53.76237 | -7.90179 | 33971 ft | 413 kts | 211° |
| 2026-05-07 20:19 | 53.71251 | -7.94967 | 33959 ft | 412 kts | 210° |
| 2026-05-07 20:20 | 53.66234 | -7.99657 | 33957 ft | 413 kts | 210° |
| 2026-05-07 20:20 | 53.61195 | -8.04337 | 33959 ft | 413 kts | 210° |
| 2026-05-07 20:21 | 53.56171 | -8.09018 | 33959 ft | 413 kts | 210° |
| 2026-05-07 20:21 | 53.51144 | -8.13698 | 33960 ft | 413 kts | 210° |
| 2026-05-07 20:22 | 53.46111 | -8.18369 | 33957 ft | 413 kts | 210° |
| 2026-05-07 20:22 | 53.41105 | -8.23000 | 33943 ft | 414 kts | 210° |
| 2026-05-07 20:23 | 53.36052 | -8.27670 | 33964 ft | 415 kts | 210° |
| 2026-05-07 20:23 | 53.30993 | -8.32327 | 33976 ft | 414 kts | 210° |
| 2026-05-07 20:24 | 53.25943 | -8.36961 | 33981 ft | 414 kts | 210° |
| 2026-05-07 20:24 | 53.20892 | -8.41587 | 33986 ft | 414 kts | 210° |
| 2026-05-07 20:25 | 53.15880 | -8.46160 | 33985 ft | 413 kts | 210° |
| 2026-05-07 20:25 | 53.10828 | -8.50760 | 33986 ft | 413 kts | 210° |
| 2026-05-07 20:26 | 53.05780 | -8.55344 | 33982 ft | 413 kts | 210° |
| 2026-05-07 20:26 | 53.00721 | -8.59914 | 33987 ft | 413 kts | 210° |
| 2026-05-07 20:27 | 52.95698 | -8.64440 | 33994 ft | 413 kts | 210° |
| 2026-05-07 20:27 | 52.91475 | -8.68244 | 33975 ft | 412 kts | 210° |
| 2026-05-07 20:28 | 52.86471 | -8.72763 | 33971 ft | 412 kts | 210° |
| 2026-05-07 20:28 | 52.81420 | -8.77290 | 33971 ft | 413 kts | 210° |
| 2026-05-07 20:29 | 52.76356 | -8.81805 | 33972 ft | 413 kts | 210° |
| 2026-05-07 20:29 | 52.71294 | -8.86311 | 33966 ft | 413 kts | 210° |
| 2026-05-07 20:30 | 52.66235 | -8.90811 | 33939 ft | 413 kts | 211° |
| 2026-05-07 20:30 | 52.61157 | -8.95311 | 33947 ft | 414 kts | 211° |
| 2026-05-07 20:31 | 52.56074 | -8.99806 | 33958 ft | 415 kts | 210° |
| 2026-05-07 20:31 | 52.51010 | -9.04271 | 33977 ft | 415 kts | 211° |
| 2026-05-07 20:32 | 52.45919 | -9.08756 | 33983 ft | 415 kts | 211° |
| 2026-05-07 20:32 | 52.40834 | -9.13222 | 33960 ft | 414 kts | 211° |
| 2026-05-07 20:33 | 52.35743 | -9.17678 | 33961 ft | 415 kts | 211° |
| 2026-05-07 20:33 | 52.30632 | -9.22133 | 33971 ft | 416 kts | 211° |
| 2026-05-07 20:34 | 52.25553 | -9.26549 | 33972 ft | 416 kts | 211° |
| 2026-05-07 20:34 | 52.20444 | -9.30990 | 33973 ft | 416 kts | 211° |
| 2026-05-07 20:35 | 52.15326 | -9.35426 | 33972 ft | 417 kts | 211° |
| 2026-05-07 20:35 | 52.10205 | -9.39851 | 33972 ft | 417 kts | 212° |
| 2026-05-07 20:36 | 52.05080 | -9.44260 | 33982 ft | 417 kts | 212° |
| 2026-05-07 20:36 | 51.99952 | -9.48667 | 33985 ft | 416 kts | 212° |
| 2026-05-07 20:37 | 51.94829 | -9.53058 | 33984 ft | 416 kts | 212° |
| 2026-05-07 20:37 | 51.89739 | -9.57409 | 33986 ft | 416 kts | 212° |
| 2026-05-07 20:38 | 51.84611 | -9.61780 | 33971 ft | 417 kts | 212° |
| 2026-05-07 20:38 | 51.79469 | -9.66156 | 33976 ft | 418 kts | 212° |
| 2026-05-07 20:39 | 51.74312 | -9.70528 | 33976 ft | 419 kts | 212° |
| 2026-05-07 20:39 | 51.69150 | -9.74891 | 33990 ft | 419 kts | 212° |
| 2026-05-07 20:40 | 51.63990 | -9.79244 | 34013 ft | 418 kts | 212° |
| 2026-05-07 20:40 | 51.58838 | -9.83578 | 33990 ft | 418 kts | 212° |
| 2026-05-07 20:41 | 51.53717 | -9.87873 | 33992 ft | 418 kts | 212° |
| 2026-05-07 20:41 | 51.48554 | -9.92200 | 33994 ft | 418 kts | 212° |
| 2026-05-07 20:42 | 51.43391 | -9.96516 | 33996 ft | 418 kts | 212° |
| 2026-05-07 20:42 | 51.38224 | -10.00810 | 34000 ft | 418 kts | 212° |
| 2026-05-07 20:43 | 51.33053 | -10.05106 | 33979 ft | 419 kts | 212° |
| 2026-05-07 20:43 | 51.27877 | -10.09401 | 33982 ft | 419 kts | 212° |
| 2026-05-07 20:44 | 51.22690 | -10.13690 | 33989 ft | 420 kts | 212° |
| 2026-05-07 20:44 | 51.17529 | -10.17938 | 33991 ft | 420 kts | 212° |
| 2026-05-07 20:45 | 51.12339 | -10.22208 | 33977 ft | 420 kts | 212° |
| 2026-05-07 20:45 | 51.07143 | -10.26483 | 33982 ft | 421 kts | 212° |
| 2026-05-07 20:46 | 51.01936 | -10.30744 | 33987 ft | 421 kts | 212° |
| 2026-05-07 20:46 | 50.96717 | -10.35004 | 33994 ft | 422 kts | 212° |
| 2026-05-07 20:47 | 50.91492 | -10.39242 | 33997 ft | 422 kts | 212° |
| 2026-05-07 20:47 | 50.86272 | -10.43480 | 33994 ft | 421 kts | 212° |
| 2026-05-07 20:48 | 50.81064 | -10.47688 | 34006 ft | 420 kts | 212° |
| 2026-05-07 20:48 | 50.75890 | -10.51867 | 34004 ft | 420 kts | 212° |
| 2026-05-07 20:49 | 50.70692 | -10.56062 | 34005 ft | 419 kts | 212° |
| 2026-05-07 20:49 | 50.65493 | -10.60250 | 34010 ft | 419 kts | 212° |
| 2026-05-07 20:50 | 50.60287 | -10.64424 | 34010 ft | 419 kts | 212° |
| 2026-05-07 20:50 | 50.55090 | -10.68580 | 34015 ft | 419 kts | 212° |
| 2026-05-07 20:51 | 50.49885 | -10.72738 | 34009 ft | 419 kts | 212° |
| 2026-05-07 20:51 | 50.44727 | -10.76850 | 34023 ft | 417 kts | 212° |
| 2026-05-07 20:52 | 50.39550 | -10.80958 | 34026 ft | 416 kts | 212° |
| 2026-05-07 20:52 | 50.34376 | -10.85043 | 34002 ft | 416 kts | 212° |
| 2026-05-07 20:53 | 50.29208 | -10.89115 | 34001 ft | 416 kts | 212° |
| 2026-05-07 20:53 | 50.24042 | -10.93193 | 34002 ft | 416 kts | 212° |
| 2026-05-07 20:54 | 50.18868 | -10.97272 | 34006 ft | 416 kts | 212° |
| 2026-05-07 20:54 | 50.13734 | -11.01302 | 34006 ft | 416 kts | 212° |
| 2026-05-07 20:55 | 50.08560 | -11.05350 | 33995 ft | 416 kts | 212° |
| 2026-05-07 20:55 | 50.03396 | -11.09379 | 34011 ft | 415 kts | 212° |
| 2026-05-07 20:56 | 49.98226 | -11.13394 | 34018 ft | 414 kts | 212° |
| 2026-05-07 20:56 | 49.93070 | -11.17393 | 34019 ft | 414 kts | 212° |
| 2026-05-07 20:57 | 49.87922 | -11.21386 | 34012 ft | 414 kts | 212° |
| 2026-05-07 20:57 | 49.82769 | -11.25380 | 33997 ft | 414 kts | 212° |
| 2026-05-07 20:58 | 49.77646 | -11.29330 | 33997 ft | 414 kts | 212° |
| 2026-05-07 20:58 | 49.72483 | -11.33295 | 34002 ft | 414 kts | 212° |
| 2026-05-07 20:59 | 49.67318 | -11.37261 | 34012 ft | 414 kts | 212° |
| 2026-05-07 20:59 | 49.62160 | -11.41214 | 34001 ft | 413 kts | 212° |
| 2026-05-07 21:00 | 49.57006 | -11.45141 | 33999 ft | 413 kts | 212° |
| 2026-05-07 21:00 | 49.51881 | -11.49040 | 33998 ft | 413 kts | 212° |
| 2026-05-07 21:01 | 49.46720 | -11.52964 | 34011 ft | 413 kts | 212° |
| 2026-05-07 21:01 | 49.41563 | -11.56882 | 34004 ft | 413 kts | 212° |
| 2026-05-07 21:02 | 49.36411 | -11.60789 | 33989 ft | 413 kts | 211° |
| 2026-05-07 21:02 | 49.31242 | -11.64694 | 34008 ft | 413 kts | 211° |
| 2026-05-07 21:03 | 49.26119 | -11.68550 | 34019 ft | 412 kts | 211° |
| 2026-05-07 21:03 | 49.20968 | -11.72413 | 34022 ft | 412 kts | 211° |
| 2026-05-07 21:04 | 49.15823 | -11.76267 | 34022 ft | 411 kts | 211° |
| 2026-05-07 21:04 | 49.10682 | -11.80108 | 34005 ft | 411 kts | 211° |
| 2026-05-07 21:05 | 49.05545 | -11.83936 | 34008 ft | 410 kts | 211° |
| 2026-05-07 21:05 | 49.00421 | -11.87763 | 34009 ft | 410 kts | 211° |
| 2026-05-07 21:06 | 48.95289 | -11.91581 | 34009 ft | 410 kts | 211° |
| 2026-05-07 21:06 | 48.90191 | -11.95349 | 34001 ft | 410 kts | 210° |
| 2026-05-07 21:07 | 48.85064 | -11.99130 | 34006 ft | 409 kts | 210° |
| 2026-05-07 21:07 | 48.79748 | -12.02344 | 34010 ft | 412 kts | 205° |
| 2026-05-07 21:08 | 48.74366 | -12.05366 | 34007 ft | 412 kts | 205° |
| 2026-05-07 21:08 | 48.68981 | -12.08379 | 34007 ft | 412 kts | 205° |
| 2026-05-07 21:09 | 48.63594 | -12.11378 | 33981 ft | 413 kts | 205° |
| 2026-05-07 21:09 | 48.58199 | -12.14378 | 33985 ft | 413 kts | 205° |
| 2026-05-07 21:10 | 48.52835 | -12.17362 | 33986 ft | 414 kts | 205° |
| 2026-05-07 21:10 | 48.47428 | -12.20358 | 33998 ft | 414 kts | 205° |
| 2026-05-07 21:11 | 48.42021 | -12.23349 | 33987 ft | 414 kts | 205° |
| 2026-05-07 21:11 | 48.33914 | -12.27826 | 33992 ft | 414 kts | 204° |
| 2026-05-07 21:12 | 48.28502 | -12.30802 | 33995 ft | 414 kts | 204° |
| 2026-05-07 21:12 | 48.23087 | -12.33779 | 33997 ft | 414 kts | 204° |
| 2026-05-07 21:13 | 48.17672 | -12.36756 | 33998 ft | 414 kts | 204° |
| 2026-05-07 21:13 | 48.12252 | -12.39719 | 33996 ft | 414 kts | 204° |
| 2026-05-07 21:14 | 48.06867 | -12.42649 | 33994 ft | 414 kts | 204° |
| 2026-05-07 21:14 | 48.01448 | -12.45594 | 34003 ft | 414 kts | 204° |
| 2026-05-07 21:15 | 47.96037 | -12.48538 | 33989 ft | 413 kts | 204° |
| 2026-05-07 21:15 | 47.90626 | -12.51479 | 33991 ft | 414 kts | 204° |
| 2026-05-07 21:16 | 47.85214 | -12.54404 | 33989 ft | 414 kts | 204° |
| 2026-05-07 21:16 | 47.79791 | -12.57323 | 33991 ft | 414 kts | 204° |
| 2026-05-07 21:17 | 47.74404 | -12.60216 | 33992 ft | 414 kts | 204° |
| 2026-05-07 21:17 | 47.68981 | -12.63134 | 33981 ft | 415 kts | 203° |
| 2026-05-07 21:18 | 47.63554 | -12.66042 | 33988 ft | 415 kts | 203° |
| 2026-05-07 21:18 | 47.58121 | -12.68937 | 33988 ft | 415 kts | 203° |
| 2026-05-07 21:19 | 47.52697 | -12.71833 | 33989 ft | 414 kts | 203° |
| 2026-05-07 21:19 | 47.48184 | -12.74241 | 33976 ft | 415 kts | 202° |
| 2026-05-07 21:20 | 47.42753 | -12.77119 | 33981 ft | 415 kts | 202° |
| 2026-05-07 21:20 | 47.37322 | -12.80002 | 33984 ft | 415 kts | 202° |
| 2026-05-07 21:21 | 47.31884 | -12.82877 | 33988 ft | 415 kts | 202° |
| 2026-05-07 21:21 | 47.26442 | -12.85741 | 33971 ft | 415 kts | 202° |
| 2026-05-07 21:22 | 47.20997 | -12.88612 | 33973 ft | 415 kts | 202° |
| 2026-05-07 21:22 | 47.15553 | -12.91470 | 33978 ft | 416 kts | 202° |
| 2026-05-07 21:23 | 47.10112 | -12.94328 | 33981 ft | 416 kts | 202° |
| 2026-05-07 21:23 | 47.04700 | -12.97163 | 33969 ft | 416 kts | 202° |
| 2026-05-07 21:24 | 46.99255 | -13.00007 | 33977 ft | 415 kts | 202° |
| 2026-05-07 21:24 | 46.93807 | -13.02845 | 33978 ft | 415 kts | 202° |
| 2026-05-07 21:25 | 46.88364 | -13.05681 | 33979 ft | 415 kts | 202° |
| 2026-05-07 21:25 | 46.82909 | -13.08510 | 33973 ft | 415 kts | 202° |
| 2026-05-07 21:26 | 46.77462 | -13.11324 | 33976 ft | 415 kts | 202° |
| 2026-05-07 21:26 | 46.72018 | -13.14129 | 33987 ft | 415 kts | 201° |
| 2026-05-07 21:27 | 46.66584 | -13.16936 | 33998 ft | 414 kts | 201° |
| 2026-05-07 21:27 | 46.61188 | -13.19706 | 33986 ft | 413 kts | 201° |
| 2026-05-07 21:28 | 46.55770 | -13.22490 | 33982 ft | 413 kts | 201° |
| 2026-05-07 21:28 | 46.50358 | -13.25266 | 33981 ft | 412 kts | 201° |
| 2026-05-07 21:29 | 46.44953 | -13.28028 | 33984 ft | 412 kts | 201° |
| 2026-05-07 21:29 | 46.39544 | -13.30782 | 33978 ft | 411 kts | 201° |
| 2026-05-07 21:30 | 46.34181 | -13.33515 | 33983 ft | 411 kts | 201° |
| 2026-05-07 21:30 | 46.28785 | -13.36252 | 33988 ft | 410 kts | 201° |
| 2026-05-07 21:31 | 46.23400 | -13.38975 | 33987 ft | 409 kts | 201° |
| 2026-05-07 21:31 | 46.18023 | -13.41696 | 33981 ft | 409 kts | 201° |
| 2026-05-07 21:32 | 46.12654 | -13.44413 | 33965 ft | 409 kts | 200° |
| 2026-05-07 21:32 | 46.07285 | -13.47118 | 33971 ft | 408 kts | 200° |
| 2026-05-07 21:33 | 46.01949 | -13.49793 | 33975 ft | 408 kts | 200° |
| 2026-05-07 21:33 | 45.96581 | -13.52482 | 33969 ft | 408 kts | 200° |
| 2026-05-07 21:34 | 45.91212 | -13.55161 | 33986 ft | 408 kts | 200° |
| 2026-05-07 21:34 | 45.85852 | -13.57829 | 33985 ft | 407 kts | 200° |
| 2026-05-07 21:35 | 45.80532 | -13.60487 | 33982 ft | 407 kts | 200° |
| 2026-05-07 21:35 | 45.75182 | -13.63150 | 33974 ft | 407 kts | 200° |
| 2026-05-07 21:36 | 45.69841 | -13.65807 | 33964 ft | 406 kts | 200° |
| 2026-05-07 21:36 | 45.64501 | -13.68465 | 33967 ft | 406 kts | 199° |
| 2026-05-07 21:37 | 45.59164 | -13.71107 | 33971 ft | 406 kts | 199° |
| 2026-05-07 21:37 | 45.53828 | -13.73738 | 33959 ft | 405 kts | 199° |
| 2026-05-07 21:38 | 45.48499 | -13.76364 | 33977 ft | 405 kts | 199° |
| 2026-05-07 21:38 | 45.43205 | -13.78967 | 33969 ft | 405 kts | 199° |
| 2026-05-07 21:39 | 45.37884 | -13.81571 | 33970 ft | 404 kts | 199° |
| 2026-05-07 21:39 | 45.32563 | -13.84171 | 33973 ft | 404 kts | 199° |
| 2026-05-07 21:40 | 45.27245 | -13.86764 | 33955 ft | 404 kts | 198° |
| 2026-05-07 21:40 | 45.21925 | -13.89363 | 33947 ft | 404 kts | 198° |
| 2026-05-07 21:41 | 45.16600 | -13.91956 | 33951 ft | 404 kts | 198° |
| 2026-05-07 21:41 | 45.11309 | -13.94528 | 33963 ft | 404 kts | 198° |
| 2026-05-07 21:42 | 45.05981 | -13.97110 | 33950 ft | 405 kts | 198° |
| 2026-05-07 21:42 | 45.00651 | -13.99683 | 33953 ft | 405 kts | 198° |
| 2026-05-07 21:43 | 44.95359 | -14.02419 | 33944 ft | 405 kts | 200° |
| 2026-05-07 21:43 | 44.90120 | -14.05402 | 33936 ft | 406 kts | 200° |
| 2026-05-07 21:44 | 44.84883 | -14.08392 | 33931 ft | 407 kts | 200° |
| 2026-05-07 21:44 | 44.79613 | -14.11337 | 33929 ft | 407 kts | 200° |
| 2026-05-07 21:45 | 44.74328 | -14.14235 | 33942 ft | 408 kts | 200° |
| 2026-05-07 21:45 | 44.69069 | -14.17124 | 33961 ft | 408 kts | 199° |
| 2026-05-07 21:46 | 44.63776 | -14.20040 | 33938 ft | 409 kts | 199° |
| 2026-05-07 21:46 | 44.58476 | -14.22949 | 33937 ft | 409 kts | 199° |
| 2026-05-07 21:47 | 44.53171 | -14.25859 | 33940 ft | 410 kts | 199° |
| 2026-05-07 21:47 | 44.47889 | -14.28756 | 33927 ft | 410 kts | 199° |
| 2026-05-07 21:48 | 44.42582 | -14.31644 | 33942 ft | 409 kts | 199° |
| 2026-05-07 21:48 | 44.37273 | -14.34521 | 33946 ft | 408 kts | 199° |
| 2026-05-07 21:49 | 44.31981 | -14.37393 | 33963 ft | 407 kts | 199° |
| 2026-05-07 21:49 | 44.26704 | -14.40262 | 33963 ft | 406 kts | 199° |
| 2026-05-07 21:50 | 44.21435 | -14.43122 | 33946 ft | 406 kts | 199° |
| 2026-05-07 21:50 | 44.16203 | -14.45945 | 33946 ft | 405 kts | 199° |
| 2026-05-07 21:51 | 44.10932 | -14.48788 | 33950 ft | 405 kts | 199° |
| 2026-05-07 21:51 | 44.05673 | -14.51623 | 33928 ft | 405 kts | 198° |
| 2026-05-07 21:52 | 44.00443 | -14.54436 | 33920 ft | 406 kts | 198° |
| 2026-05-07 21:52 | 43.95174 | -14.57270 | 33918 ft | 407 kts | 198° |
| 2026-05-07 21:53 | 43.89891 | -14.60096 | 33937 ft | 406 kts | 198° |
| 2026-05-07 21:53 | 43.84612 | -14.62909 | 33935 ft | 406 kts | 198° |
| 2026-05-07 21:54 | 43.79339 | -14.65716 | 33928 ft | 406 kts | 198° |
| 2026-05-07 21:54 | 43.74074 | -14.68527 | 33926 ft | 406 kts | 198° |
| 2026-05-07 21:55 | 43.68805 | -14.71325 | 33927 ft | 405 kts | 198° |
| 2026-05-07 21:55 | 43.63530 | -14.74118 | 33932 ft | 406 kts | 198° |
| 2026-05-07 21:56 | 43.58290 | -14.76894 | 33923 ft | 406 kts | 198° |
| 2026-05-07 21:56 | 43.53012 | -14.79690 | 33918 ft | 406 kts | 198° |
| 2026-05-07 21:57 | 43.47732 | -14.82463 | 33916 ft | 406 kts | 198° |
| 2026-05-07 21:57 | 43.42458 | -14.85247 | 33910 ft | 406 kts | 197° |
| 2026-05-07 21:58 | 43.37203 | -14.88013 | 33902 ft | 407 kts | 197° |
| 2026-05-07 21:58 | 43.31898 | -14.90790 | 33902 ft | 408 kts | 197° |
| 2026-05-07 21:59 | 43.26582 | -14.93568 | 33917 ft | 409 kts | 197° |
| 2026-05-07 21:59 | 43.21257 | -14.96353 | 33906 ft | 411 kts | 197° |
| 2026-05-07 22:00 | 43.15899 | -14.99151 | 33895 ft | 413 kts | 197° |
| 2026-05-07 22:00 | 43.10517 | -15.01952 | 33895 ft | 414 kts | 197° |
| 2026-05-07 22:01 | 43.05117 | -15.04756 | 33895 ft | 415 kts | 197° |
| 2026-05-07 22:01 | 42.99741 | -15.07547 | 33903 ft | 416 kts | 197° |
| 2026-05-07 22:02 | 42.94309 | -15.10348 | 33897 ft | 417 kts | 197° |
| 2026-05-07 22:02 | 42.88872 | -15.13158 | 33895 ft | 418 kts | 197° |
| 2026-05-07 22:03 | 42.83420 | -15.15967 | 33899 ft | 418 kts | 197° |
| 2026-05-07 22:03 | 42.77963 | -15.18768 | 33906 ft | 419 kts | 197° |
| 2026-05-07 22:04 | 42.72549 | -15.21551 | 33902 ft | 419 kts | 198° |
| 2026-05-07 22:04 | 42.67100 | -15.24354 | 33899 ft | 418 kts | 197° |
| 2026-05-07 22:05 | 42.61648 | -15.27142 | 33896 ft | 418 kts | 197° |
| 2026-05-07 22:05 | 42.56195 | -15.29920 | 33903 ft | 419 kts | 198° |
| 2026-05-07 22:06 | 42.50739 | -15.32710 | 33897 ft | 419 kts | 198° |
| 2026-05-07 22:06 | 42.45278 | -15.35495 | 33889 ft | 419 kts | 198° |
| 2026-05-07 22:07 | 42.39803 | -15.38267 | 33890 ft | 420 kts | 197° |
| 2026-05-07 22:07 | 42.34329 | -15.41036 | 33885 ft | 420 kts | 198° |
| 2026-05-07 22:08 | 42.28891 | -15.43799 | 33883 ft | 420 kts | 198° |
| 2026-05-07 22:08 | 42.23412 | -15.46574 | 33885 ft | 420 kts | 198° |
| 2026-05-07 22:09 | 42.17924 | -15.49332 | 33888 ft | 420 kts | 198° |
| 2026-05-07 22:09 | 42.12444 | -15.52082 | 33897 ft | 420 kts | 198° |
| 2026-05-07 22:10 | 42.06970 | -15.54839 | 33896 ft | 419 kts | 198° |
| 2026-05-07 22:10 | 42.01530 | -15.57542 | 33889 ft | 418 kts | 195° |
| 2026-05-07 22:11 | 41.95836 | -15.58788 | 33893 ft | 415 kts | 183° |
| 2026-05-07 22:11 | 41.90082 | -15.59415 | 33884 ft | 415 kts | 184° |
| 2026-05-07 22:12 | 41.84327 | -15.60064 | 33886 ft | 415 kts | 184° |
| 2026-05-07 22:12 | 41.78577 | -15.60700 | 33879 ft | 415 kts | 184° |
| 2026-05-07 22:13 | 41.72814 | -15.61323 | 33876 ft | 415 kts | 183° |
| 2026-05-07 22:13 | 41.67065 | -15.61941 | 33877 ft | 415 kts | 183° |
| 2026-05-07 22:14 | 41.62285 | -15.62462 | 33873 ft | 415 kts | 184° |
| 2026-05-07 22:14 | 41.56535 | -15.63090 | 33873 ft | 415 kts | 184° |
| 2026-05-07 22:15 | 41.50784 | -15.63717 | 33887 ft | 414 kts | 184° |
| 2026-05-07 22:15 | 41.45041 | -15.64341 | 33904 ft | 414 kts | 183° |
| 2026-05-07 22:16 | 41.39307 | -15.64964 | 33900 ft | 413 kts | 183° |
| 2026-05-07 22:16 | 41.33580 | -15.65581 | 33889 ft | 413 kts | 183° |
| 2026-05-07 22:17 | 41.27887 | -15.66201 | 33885 ft | 412 kts | 184° |
| 2026-05-07 22:17 | 41.22168 | -15.66821 | 33876 ft | 412 kts | 184° |
| 2026-05-07 22:18 | 41.13580 | -15.67741 | 33865 ft | 412 kts | 183° |
| 2026-05-07 22:19 | 41.07854 | -15.68350 | 33861 ft | 413 kts | 184° |
| 2026-05-07 22:19 | 41.02122 | -15.68966 | 33853 ft | 414 kts | 184° |
| 2026-05-07 22:20 | 40.96383 | -15.69579 | 33850 ft | 414 kts | 184° |
| 2026-05-07 22:20 | 40.90639 | -15.70193 | 33848 ft | 414 kts | 184° |
| 2026-05-07 22:21 | 40.84921 | -15.70798 | 33846 ft | 415 kts | 184° |
| 2026-05-07 22:21 | 40.79165 | -15.71412 | 33848 ft | 415 kts | 184° |
| 2026-05-07 22:22 | 40.73404 | -15.72024 | 33849 ft | 415 kts | 184° |
| 2026-05-07 22:22 | 40.67642 | -15.72634 | 33847 ft | 415 kts | 184° |
| 2026-05-07 22:23 | 40.61876 | -15.73255 | 33843 ft | 416 kts | 184° |
| 2026-05-07 22:23 | 40.56105 | -15.73875 | 33842 ft | 416 kts | 184° |
| 2026-05-07 22:24 | 40.50332 | -15.74480 | 33837 ft | 416 kts | 184° |
| 2026-05-07 22:24 | 40.44556 | -15.75082 | 33840 ft | 417 kts | 185° |
| 2026-05-07 22:25 | 40.38769 | -15.75687 | 33840 ft | 417 kts | 185° |
| 2026-05-07 22:25 | 40.32980 | -15.76294 | 33841 ft | 417 kts | 185° |
| 2026-05-07 22:26 | 40.27230 | -15.76899 | 33839 ft | 417 kts | 185° |
| 2026-05-07 22:26 | 40.21430 | -15.77497 | 33832 ft | 417 kts | 185° |
| 2026-05-07 22:27 | 40.15636 | -15.78104 | 33831 ft | 418 kts | 185° |
| 2026-05-07 22:27 | 40.09842 | -15.78714 | 33827 ft | 418 kts | 185° |
| 2026-05-07 22:28 | 40.04042 | -15.79317 | 33822 ft | 418 kts | 185° |
| 2026-05-07 22:28 | 39.98269 | -15.79918 | 33823 ft | 419 kts | 185° |
| 2026-05-07 22:29 | 39.92458 | -15.80516 | 33825 ft | 419 kts | 185° |
| 2026-05-07 22:29 | 39.86643 | -15.81110 | 33826 ft | 419 kts | 185° |
| 2026-05-07 22:30 | 39.80825 | -15.81706 | 33824 ft | 419 kts | 186° |
| 2026-05-07 22:30 | 39.74997 | -15.82303 | 33819 ft | 420 kts | 186° |
| 2026-05-07 22:31 | 39.69149 | -15.82910 | 33822 ft | 421 kts | 186° |
| 2026-05-07 22:31 | 39.63338 | -15.83517 | 33816 ft | 422 kts | 186° |
| 2026-05-07 22:32 | 39.57482 | -15.84133 | 33819 ft | 422 kts | 186° |
| 2026-05-07 22:32 | 39.51617 | -15.84727 | 33820 ft | 423 kts | 186° |
| 2026-05-07 22:33 | 39.45750 | -15.85317 | 33818 ft | 423 kts | 186° |
| 2026-05-07 22:33 | 39.39889 | -15.85920 | 33820 ft | 423 kts | 186° |
| 2026-05-07 22:34 | 39.34021 | -15.86521 | 33810 ft | 423 kts | 186° |
| 2026-05-07 22:34 | 39.28138 | -15.87117 | 33808 ft | 424 kts | 186° |
| 2026-05-07 22:35 | 39.22283 | -15.87710 | 33814 ft | 425 kts | 186° |
| 2026-05-07 22:35 | 39.16381 | -15.88309 | 33816 ft | 425 kts | 186° |
| 2026-05-07 22:36 | 39.10477 | -15.88904 | 33803 ft | 426 kts | 187° |
| 2026-05-07 22:36 | 39.04565 | -15.89509 | 33803 ft | 427 kts | 187° |
| 2026-05-07 22:37 | 38.98642 | -15.90108 | 33805 ft | 427 kts | 187° |
| 2026-05-07 22:37 | 38.92758 | -15.90697 | 33809 ft | 427 kts | 187° |
| 2026-05-07 22:38 | 38.86821 | -15.91291 | 33805 ft | 428 kts | 187° |
| 2026-05-07 22:38 | 38.80877 | -15.91891 | 33812 ft | 428 kts | 187° |
| 2026-05-07 22:39 | 38.74932 | -15.92485 | 33809 ft | 429 kts | 187° |
| 2026-05-07 22:39 | 38.68978 | -15.93078 | 33788 ft | 429 kts | 188° |
| 2026-05-07 22:40 | 38.63023 | -15.93674 | 33795 ft | 429 kts | 188° |
| 2026-05-07 22:40 | 38.57059 | -15.94271 | 33801 ft | 430 kts | 188° |
| 2026-05-07 22:41 | 38.51132 | -15.94854 | 33802 ft | 430 kts | 188° |
| 2026-05-07 22:41 | 38.45159 | -15.95448 | 33788 ft | 430 kts | 188° |
| 2026-05-07 22:42 | 38.39183 | -15.96044 | 33791 ft | 431 kts | 188° |
| 2026-05-07 22:42 | 38.33186 | -15.96641 | 33795 ft | 432 kts | 188° |
| 2026-05-07 22:43 | 38.27231 | -15.97233 | 33799 ft | 432 kts | 188° |
| 2026-05-07 22:43 | 38.22210 | -15.97725 | 33786 ft | 432 kts | 188° |
| 2026-05-07 22:44 | 38.15224 | -15.98415 | 33791 ft | 433 kts | 188° |
| 2026-05-07 22:44 | 38.09207 | -15.99009 | 33794 ft | 434 kts | 188° |
| 2026-05-07 22:45 | 38.03185 | -15.99599 | 33797 ft | 434 kts | 188° |
| 2026-05-07 22:45 | 37.97150 | -16.00185 | 33786 ft | 435 kts | 189° |
| 2026-05-07 22:46 | 37.91097 | -16.00783 | 33791 ft | 436 kts | 189° |
| 2026-05-07 22:46 | 37.85036 | -16.01379 | 33795 ft | 437 kts | 189° |
| 2026-05-07 22:47 | 37.79008 | -16.01967 | 33798 ft | 437 kts | 189° |
| 2026-05-07 22:47 | 37.72935 | -16.02560 | 33792 ft | 438 kts | 189° |
| 2026-05-07 22:48 | 37.66854 | -16.03142 | 33801 ft | 438 kts | 189° |
| 2026-05-07 22:48 | 37.60770 | -16.03725 | 33804 ft | 438 kts | 189° |
| 2026-05-07 22:49 | 37.54695 | -16.04327 | 33791 ft | 438 kts | 189° |
| 2026-05-07 22:49 | 37.48614 | -16.04914 | 33795 ft | 438 kts | 189° |
| 2026-05-07 22:50 | 37.42573 | -16.05504 | 33801 ft | 438 kts | 189° |
| 2026-05-07 22:50 | 37.36497 | -16.06090 | 33807 ft | 437 kts | 189° |
| 2026-05-07 22:51 | 37.30430 | -16.06674 | 33803 ft | 437 kts | 189° |
| 2026-05-07 22:51 | 37.25385 | -16.07156 | 33807 ft | 437 kts | 189° |
| 2026-05-07 22:52 | 37.18326 | -16.07838 | 33810 ft | 437 kts | 189° |
| 2026-05-07 22:52 | 37.14269 | -16.08226 | 33810 ft | 437 kts | 189° |
| 2026-05-07 22:54 | 36.94823 | -16.10076 | 33811 ft | 436 kts | 190° |
| 2026-05-07 22:54 | 36.88774 | -16.10654 | 33824 ft | 436 kts | 190° |
| 2026-05-07 22:55 | 36.82734 | -16.11230 | 33811 ft | 435 kts | 190° |
| 2026-05-07 22:55 | 36.76694 | -16.11807 | 33809 ft | 435 kts | 190° |
| 2026-05-07 22:56 | 36.70657 | -16.12385 | 33810 ft | 435 kts | 190° |
| 2026-05-07 22:56 | 36.64615 | -16.12953 | 33817 ft | 435 kts | 190° |
| 2026-05-07 22:57 | 36.58579 | -16.13521 | 33795 ft | 435 kts | 191° |
| 2026-05-07 22:57 | 36.52583 | -16.14087 | 33809 ft | 434 kts | 191° |
| 2026-05-07 22:58 | 36.46557 | -16.14658 | 33817 ft | 434 kts | 191° |
| 2026-05-07 22:58 | 36.40532 | -16.15223 | 33833 ft | 434 kts | 191° |
| 2026-05-07 22:59 | 36.34507 | -16.15783 | 33814 ft | 434 kts | 191° |
| 2026-05-07 22:59 | 36.28493 | -16.16353 | 33832 ft | 433 kts | 191° |
| 2026-05-07 23:00 | 36.22484 | -16.16915 | 33826 ft | 433 kts | 191° |
| 2026-05-07 23:00 | 36.16464 | -16.17475 | 33837 ft | 433 kts | 191° |
| 2026-05-07 23:01 | 36.10464 | -16.18037 | 33827 ft | 432 kts | 191° |
| 2026-05-07 23:01 | 36.04510 | -16.18589 | 33830 ft | 432 kts | 191° |
| 2026-05-07 23:02 | 35.98516 | -16.19138 | 33841 ft | 432 kts | 191° |
| 2026-05-07 23:02 | 35.92523 | -16.19697 | 33845 ft | 431 kts | 191° |
| 2026-05-07 23:03 | 35.86533 | -16.20265 | 33823 ft | 431 kts | 191° |
| 2026-05-07 23:03 | 35.80552 | -16.20822 | 33835 ft | 431 kts | 191° |
| 2026-05-07 23:04 | 35.74574 | -16.21368 | 33842 ft | 430 kts | 191° |
| 2026-05-07 23:04 | 35.68606 | -16.21917 | 33849 ft | 430 kts | 191° |
| 2026-05-07 23:05 | 35.62665 | -16.22469 | 33821 ft | 430 kts | 192° |
| 2026-05-07 23:05 | 35.56708 | -16.23021 | 33836 ft | 429 kts | 192° |
| 2026-05-07 23:06 | 35.50752 | -16.23580 | 33851 ft | 429 kts | 193° |
| 2026-05-07 23:06 | 35.44832 | -16.24336 | 33855 ft | 427 kts | 194° |
| 2026-05-07 23:07 | 35.38939 | -16.25219 | 33836 ft | 426 kts | 194° |
| 2026-05-07 23:07 | 35.33040 | -16.26074 | 33849 ft | 427 kts | 194° |
| 2026-05-07 23:08 | 35.27132 | -16.26877 | 33853 ft | 427 kts | 194° |
| 2026-05-07 23:08 | 35.21253 | -16.27673 | 33861 ft | 427 kts | 194° |
| 2026-05-07 23:09 | 35.15323 | -16.28487 | 33864 ft | 427 kts | 194° |
| 2026-05-07 23:09 | 35.09413 | -16.29293 | 33845 ft | 427 kts | 195° |
| 2026-05-07 23:10 | 35.03512 | -16.30103 | 33856 ft | 427 kts | 195° |
| 2026-05-07 23:10 | 34.97617 | -16.30907 | 33863 ft | 427 kts | 195° |
| 2026-05-07 23:11 | 34.91679 | -16.31715 | 33872 ft | 427 kts | 195° |
| 2026-05-07 23:11 | 34.85782 | -16.32515 | 33874 ft | 427 kts | 194° |
| 2026-05-07 23:12 | 34.79870 | -16.33314 | 33881 ft | 427 kts | 194° |
| 2026-05-07 23:12 | 34.73962 | -16.34110 | 33887 ft | 427 kts | 194° |
| 2026-05-07 23:13 | 34.68086 | -16.34904 | 33866 ft | 427 kts | 194° |
| 2026-05-07 23:13 | 34.62176 | -16.35704 | 33868 ft | 427 kts | 195° |
| 2026-05-07 23:13 | 34.59218 | -16.36106 | 33728 ft | 427 kts | 195° |
| 2026-05-07 23:14 | 34.56262 | -16.36504 | 32924 ft | 428 kts | 195° |
| 2026-05-07 23:14 | 34.53296 | -16.36904 | 32035 ft | 430 kts | 195° |
| 2026-05-07 23:14 | 34.50327 | -16.37303 | 31361 ft | 428 kts | 195° |
| 2026-05-07 23:14 | 34.47377 | -16.37698 | 30766 ft | 424 kts | 195° |
| 2026-05-07 23:15 | 34.44455 | -16.38091 | 30186 ft | 421 kts | 195° |
| 2026-05-07 23:15 | 34.41556 | -16.38476 | 29581 ft | 417 kts | 195° |
| 2026-05-07 23:15 | 34.38677 | -16.38856 | 28974 ft | 414 kts | 195° |
| 2026-05-07 23:15 | 34.35831 | -16.39233 | 28328 ft | 410 kts | 195° |
| 2026-05-07 23:16 | 34.33008 | -16.39610 | 27776 ft | 406 kts | 195° |
| 2026-05-07 23:16 | 34.30215 | -16.39981 | 27223 ft | 402 kts | 195° |
| 2026-05-07 23:16 | 34.27450 | -16.40350 | 26676 ft | 398 kts | 195° |
| 2026-05-07 23:16 | 34.24708 | -16.40715 | 26143 ft | 395 kts | 195° |
| 2026-05-07 23:17 | 34.21991 | -16.41079 | 25623 ft | 391 kts | 195° |
| 2026-05-07 23:17 | 34.19301 | -16.41438 | 25116 ft | 388 kts | 195° |
| 2026-05-07 23:17 | 34.16633 | -16.41794 | 24634 ft | 384 kts | 195° |
| 2026-05-07 23:17 | 34.13983 | -16.42149 | 24148 ft | 381 kts | 195° |
| 2026-05-07 23:18 | 34.11358 | -16.42500 | 23660 ft | 379 kts | 195° |
| 2026-05-07 23:18 | 34.08748 | -16.42844 | 23143 ft | 376 kts | 195° |
| 2026-05-07 23:18 | 34.06154 | -16.43187 | 22620 ft | 373 kts | 195° |
| 2026-05-07 23:18 | 34.03583 | -16.43529 | 22120 ft | 370 kts | 195° |
| 2026-05-07 23:19 | 34.01031 | -16.43869 | 21632 ft | 368 kts | 195° |
| 2026-05-07 23:19 | 33.98499 | -16.44208 | 21158 ft | 365 kts | 195° |
| 2026-05-07 23:19 | 33.95989 | -16.44545 | 20679 ft | 362 kts | 195° |
| 2026-05-07 23:19 | 33.93524 | -16.44877 | 20219 ft | 360 kts | 195° |
| 2026-05-07 23:20 | 33.91046 | -16.45207 | 19766 ft | 357 kts | 195° |
| 2026-05-07 23:20 | 33.88585 | -16.45532 | 19311 ft | 355 kts | 195° |
| 2026-05-07 23:20 | 33.86136 | -16.45855 | 18820 ft | 353 kts | 195° |
| 2026-05-07 23:20 | 33.83704 | -16.46179 | 18376 ft | 351 kts | 195° |
| 2026-05-07 23:21 | 33.81288 | -16.46499 | 17909 ft | 349 kts | 195° |
| 2026-05-07 23:21 | 33.78881 | -16.46815 | 17414 ft | 347 kts | 194° |
| 2026-05-07 23:21 | 33.76487 | -16.47126 | 16928 ft | 345 kts | 194° |
| 2026-05-07 23:21 | 33.74098 | -16.47441 | 16453 ft | 344 kts | 194° |
| 2026-05-07 23:22 | 33.71726 | -16.47758 | 15976 ft | 342 kts | 194° |
| 2026-05-07 23:22 | 33.69366 | -16.48075 | 15548 ft | 341 kts | 194° |
| 2026-05-07 23:22 | 33.67013 | -16.48390 | 15098 ft | 340 kts | 194° |
| 2026-05-07 23:22 | 33.64667 | -16.48702 | 14664 ft | 339 kts | 193° |
| 2026-05-07 23:23 | 33.62328 | -16.49013 | 14229 ft | 337 kts | 193° |
| 2026-05-07 23:23 | 33.60024 | -16.49319 | 13804 ft | 336 kts | 193° |
| 2026-05-07 23:23 | 33.57701 | -16.49626 | 13350 ft | 334 kts | 193° |
| 2026-05-07 23:23 | 33.55399 | -16.49930 | 12899 ft | 332 kts | 193° |
| 2026-05-07 23:24 | 33.53113 | -16.50233 | 12457 ft | 330 kts | 193° |
| 2026-05-07 23:24 | 33.50835 | -16.50537 | 12025 ft | 327 kts | 193° |
| 2026-05-07 23:24 | 33.48579 | -16.50836 | 11588 ft | 325 kts | 192° |
| 2026-05-07 23:24 | 33.46341 | -16.51133 | 11159 ft | 323 kts | 192° |
| 2026-05-07 23:25 | 33.44120 | -16.51425 | 10728 ft | 320 kts | 192° |
| 2026-05-07 23:25 | 33.41910 | -16.51714 | 10298 ft | 318 kts | 192° |
| 2026-05-07 23:25 | 33.39718 | -16.52002 | 9908 ft | 315 kts | 192° |
| 2026-05-07 23:25 | 33.37576 | -16.52283 | 9774 ft | 303 kts | 192° |
| 2026-05-07 23:26 | 33.35517 | -16.52550 | 9606 ft | 292 kts | 192° |
| 2026-05-07 23:26 | 33.33529 | -16.52808 | 9363 ft | 285 kts | 192° |
| 2026-05-07 23:26 | 33.31564 | -16.53067 | 9004 ft | 282 kts | 192° |
| 2026-05-07 23:26 | 33.29619 | -16.53326 | 8633 ft | 280 kts | 192° |
| 2026-05-07 23:27 | 33.25794 | -16.53832 | 7893 ft | 276 kts | 192° |
| 2026-05-07 23:27 | 33.23893 | -16.54082 | 7519 ft | 274 kts | 191° |
| 2026-05-07 23:27 | 33.22010 | -16.54329 | 7154 ft | 271 kts | 191° |
| 2026-05-07 23:28 | 33.20137 | -16.54577 | 6777 ft | 269 kts | 191° |
| 2026-05-07 23:28 | 33.18279 | -16.54825 | 6412 ft | 267 kts | 191° |
| 2026-05-07 23:28 | 33.16443 | -16.55067 | 6025 ft | 264 kts | 191° |
| 2026-05-07 23:28 | 33.14622 | -16.55305 | 5627 ft | 262 kts | 191° |
| 2026-05-07 23:29 | 33.12817 | -16.55539 | 5233 ft | 260 kts | 191° |
| 2026-05-07 23:29 | 33.11023 | -16.55771 | 4835 ft | 258 kts | 191° |
| 2026-05-07 23:29 | 33.09245 | -16.56003 | 4413 ft | 256 kts | 190° |
| 2026-05-07 23:29 | 33.07497 | -16.56233 | 4056 ft | 255 kts | 189° |
| 2026-05-07 23:30 | 33.05728 | -16.56465 | 4013 ft | 257 kts | 189° |
| 2026-05-07 23:30 | 33.03950 | -16.56699 | 4027 ft | 255 kts | 189° |
| 2026-05-07 23:30 | 33.02239 | -16.56921 | 4024 ft | 240 kts | 189° |
| 2026-05-07 23:30 | 33.00592 | -16.57136 | 4021 ft | 237 kts | 189° |
| 2026-05-07 23:31 | 32.98958 | -16.57350 | 4031 ft | 237 kts | 189° |
| 2026-05-07 23:31 | 32.97323 | -16.57563 | 3999 ft | 235 kts | 189° |
| 2026-05-07 23:31 | 32.95698 | -16.57775 | 3855 ft | 236 kts | 189° |
| 2026-05-07 23:31 | 32.94064 | -16.57990 | 3728 ft | 236 kts | 189° |
| 2026-05-07 23:32 | 32.92429 | -16.58205 | 3597 ft | 236 kts | 189° |
| 2026-05-07 23:32 | 32.90793 | -16.58418 | 3475 ft | 236 kts | 189° |
| 2026-05-07 23:32 | 32.89171 | -16.58630 | 3346 ft | 230 kts | 189° |
| 2026-05-07 23:32 | 32.87620 | -16.58829 | 3221 ft | 220 kts | 189° |
| 2026-05-07 23:33 | 32.86137 | -16.59160 | 3091 ft | 215 kts | 202° |
| 2026-05-07 23:33 | 32.84833 | -16.59938 | 2968 ft | 212 kts | 217° |
| 2026-05-07 23:33 | 32.83735 | -16.61100 | 2842 ft | 211 kts | 226° |
| 2026-05-07 23:33 | 32.82703 | -16.62320 | 2704 ft | 205 kts | 226° |
| 2026-05-07 23:34 | 32.81711 | -16.63483 | 2575 ft | 196 kts | 226° |
| 2026-05-07 23:34 | 32.80762 | -16.64591 | 2439 ft | 186 kts | 226° |
| 2026-05-07 23:34 | 32.79869 | -16.65635 | 2172 ft | 177 kts | 226° |
| 2026-05-07 23:34 | 32.79021 | -16.66626 | 2031 ft | 161 kts | 226° |
| 2026-05-07 23:35 | 32.78272 | -16.67501 | 1997 ft | 144 kts | 227° |
| 2026-05-07 23:35 | 32.77578 | -16.68313 | 1997 ft | 138 kts | 226° |
| 2026-05-07 23:35 | 32.76901 | -16.69109 | 1990 ft | 137 kts | 226° |
| 2026-05-07 23:35 | 32.76232 | -16.69895 | 1781 ft | 134 kts | 226° |
| 2026-05-07 23:36 | 32.75570 | -16.70671 | 1592 ft | 133 kts | 227° |
| 2026-05-07 23:36 | 32.74911 | -16.71444 | 1406 ft | 132 kts | 227° |
| 2026-05-07 23:36 | 32.74242 | -16.72227 | 1228 ft | 136 kts | 227° |
| 2026-05-07 23:36 | 32.73576 | -16.73007 | 1050 ft | 132 kts | 227° |
| 2026-05-07 23:37 | 32.72923 | -16.73771 | 878 ft | 131 kts | 226° |
| 2026-05-07 23:37 | 32.72269 | -16.74533 | 705 ft | 133 kts | 226° |
| 2026-05-07 23:37 | 32.71607 | -16.75307 | 530 ft | 132 kts | 229° |
| 2026-05-07 23:37 | 32.70961 | -16.76072 | 375 ft | 130 kts | 230° |
| 2026-05-07 23:38 | 32.70321 | -16.76838 | 212 ft | 130 kts | 226° |
| 2026-05-07 23:38 | 32.69996 | -16.77186 | 200 ft | 0 kts | 218° |